Harrison Valley, Pennsylvania
Current Conditions -  °F | °C
As of 6:15 AM on Monday 22 Dec 2014 (Local Time) from KN38 Reporting Station
Overcast Overcast  
Wind Chill: 13°   Ceiling: 600
Heat Index: 21°   Visibility: 9mi
Dew Point: 19°   Wind: 7mph
Humidity: 93%   Direction: 190°S
Pressure: 30.2"   Gusts: NA
Location:  41.94°N, 77.65°W
Report Text: KN38 221115Z AUTO 19006KT 9SM OVC006 M06/M07 A3020 RMK AO2
Loading
Personal Weather Stations






























Interactive Weather Map New forecast layout! Learn more

10-Day Weather Forecast

Advertisements
Track Severe Weather on mobile